Anna, Texas
Current Conditions -  °F | °C
As of 1:03 AM on Monday 22 Dec 2014 (Local Time) from KTKI Reporting Station
Overcast Overcast  
Wind Chill: 52°   Ceiling: 1500
Heat Index: 52°   Visibility: 10mi
Dew Point: 49°   Wind: 17mph
Humidity: 89%   Direction: 170°S
Pressure: 29.68"   Gusts: NA
Location:  33.35°N, 96.55°W
Report Text: KTKI 220703Z AUTO 17015KT 10SM OVC015 11/09 A2968 RMK AO2 T01110094
Loading
Personal Weather Stations






























Interactive Weather Map New forecast layout! Learn more

10-Day Weather Forecast

Advertisements
Track Severe Weather on mobile